VABP/BHO METAR and TAF weather

Enter ICAO airport designator
Station Type Date Time Source
VABP METAR 2019/10/18 10:30 UTC NOAA

VABP 181030Z 06005KT 6000 FEW030 30/14 Q1013 NOSIG


Station Type Date Time Source
VABP Decoded METAR 2019/10/18 10:30 UTC NOAA

Bhopal / Bairagarh, India (VABP) 23-17N 077-21E 523M
Oct 18, 2019 - 06:30 AM EDT / 2019.10.18 1030 UTC
Wind: from the ENE (060 degrees) at 6 MPH (5 KT):0
Visibility: 3 mile(s):0
Sky conditions: mostly clear
Temperature: 86 F (30 C)
Dew Point: 57 F (14 C)
Relative Humidity: 37%
Pressure (altimeter): 29.91 in. Hg (1013 hPa)
ob: VABP 181030Z 06005KT 6000 FEW030 30/14 Q1013 NOSIG
cycle: 10

Station Type Date Time Source
VABP TAF 2019/04/18 06:00 UTC NOAA

TAF VABP 180500Z 1806/1815 32008KT 6000 FEW030

Example: see airport list